Kezdőlap
METAR-TAF:

METAR-TAF

Repülőterek :

Jendouba, Tunézia

földrajzi szélesség: 36-29N, földrajzi hosszúság: 008-48E, magasság: 143 m

Jelenlegi meteorológiai megfigyelések

A jelentés 39 perccel ezelõtt készült, 15:00 UTC
Északkeleti szél 3 kt
Hőmérséklet 19°C
Páratartalom 52%
Légköri nyomás 1021 hPa
Látótávolság 10 km, vagy több
felhőtlen 1500 m magasságban, és nincs gomolyfelhõ

METAR: DTTN 061500Z 04003KT CAVOK 19/09 Q1021

Idő: 16:39 (15:39 UTC)


TAF: hiányzik

Meteorológiai megfigyelések és előrejelzések több, mint 4000 repülőtéren (METAR és TAF jelentéseket).

A térképen piros és sárga pontok jelzik az elérhető meteorológiai állomásokat.

Mozgassa az egeret a pont fölött, hogy megjelenjen az állomás neve.

Azután kattintson az időjárási megfigyelések és előrejelzések megtekintéséhez.

A térkép megváltoztatása: kattintson a fekete keresztel jelölt zöld gombra ráközelítéshez, a vonallal jelölt zöld gombra távolításhoz, vagy a zöld nyilakra a szomszédos térképek eléréséhez.


METAR-TAF: